createdAt,value
2022-11-20T00:01:29.758Z,16.17
2022-11-20T00:03:58.710Z,15.57
2022-11-20T00:06:27.633Z,16.10
2022-11-20T00:08:55.963Z,14.13
2022-11-20T00:11:25.038Z,13.90
2022-11-20T00:13:54.764Z,12.20
2022-11-20T00:16:25.162Z,14.53
2022-11-20T00:18:52.916Z,14.30
2022-11-20T00:21:22.193Z,14.97
2022-11-20T00:23:50.456Z,14.67
2022-11-20T00:26:20.429Z,15.27
2022-11-20T00:28:51.123Z,14.23
2022-11-20T00:31:18.693Z,15.27
2022-11-20T00:33:47.869Z,14.13
2022-11-20T00:36:17.161Z,15.10
2022-11-20T00:38:44.871Z,13.77
2022-11-20T00:41:14.558Z,13.97
2022-11-20T00:43:42.318Z,12.37
2022-11-20T00:46:11.497Z,15.47
2022-11-20T00:48:38.928Z,14.10
2022-11-20T00:51:07.844Z,14.70
2022-11-20T00:53:35.286Z,14.67
2022-11-20T00:56:04.694Z,13.27
2022-11-20T00:58:33.610Z,15.50
2022-11-20T01:01:01.855Z,15.53
2022-11-20T01:03:31.474Z,15.30
2022-11-20T01:06:01.382Z,14.27
2022-11-20T01:08:32.246Z,15.33
2022-11-20T01:11:00.993Z,13.97
2022-11-20T01:13:28.248Z,15.53
2022-11-20T01:15:55.425Z,16.87
2022-11-20T01:18:22.698Z,16.13
2022-11-20T01:20:49.896Z,15.90
2022-11-20T01:23:17.167Z,17.00
2022-11-20T01:25:45.769Z,15.83
2022-11-20T01:28:12.946Z,15.83
2022-11-20T01:30:40.170Z,16.57
2022-11-20T01:33:07.518Z,16.03
2022-11-20T01:35:34.789Z,14.03
2022-11-20T01:38:02.085Z,15.33
2022-11-20T01:40:29.393Z,14.90
2022-11-20T01:43:13.349Z,14.10
2022-11-20T01:46:01.746Z,15.77
2022-11-20T01:48:37.322Z,16.03
2022-11-20T01:51:07.772Z,16.70
2022-11-20T01:53:37.709Z,15.57
2022-11-20T01:56:08.319Z,14.83
2022-11-20T01:58:40.399Z,17.13
2022-11-20T02:01:07.767Z,15.20
2022-11-20T02:03:35.274Z,14.37
2022-11-20T02:06:09.621Z,14.57
2022-11-20T02:08:38.475Z,13.90
2022-11-20T02:11:05.877Z,13.93
2022-11-20T02:13:33.973Z,13.87
2022-11-20T02:16:03.132Z,13.83
2022-11-20T02:18:31.551Z,13.80
2022-11-20T02:21:07.337Z,13.87
2022-11-20T02:23:39.396Z,12.97
2022-11-20T02:26:13.146Z,15.20
2022-11-20T02:28:40.577Z,15.07
2022-11-20T02:31:07.819Z,12.80
2022-11-20T02:33:35.094Z,12.27
2022-11-20T02:36:02.481Z,14.60
2022-11-20T02:38:29.712Z,13.93
2022-11-20T02:40:56.947Z,13.67
2022-11-20T02:43:25.531Z,13.83
2022-11-20T02:45:52.776Z,12.90
2022-11-20T02:48:20.012Z,13.20
2022-11-20T02:50:47.249Z,15.17
2022-11-20T02:53:14.604Z,13.53
2022-11-20T02:55:41.890Z,14.10
2022-11-20T02:58:09.210Z,14.73
2022-11-20T03:00:37.807Z,13.00
2022-11-20T03:03:05.077Z,12.20
2022-11-20T03:05:32.398Z,12.27
2022-11-20T03:07:59.705Z,12.10
2022-11-20T03:10:27.114Z,13.70
2022-11-20T03:12:55.035Z,12.50
2022-11-20T03:15:22.387Z,11.53
2022-11-20T03:17:54.565Z,11.40
2022-11-20T03:20:21.918Z,10.90
2022-11-20T03:22:49.216Z,12.20
2022-11-20T03:25:16.551Z,10.30
2022-11-20T03:27:43.816Z,11.53
2022-11-20T03:30:11.709Z,10.87
2022-11-20T03:32:38.994Z,11.80
2022-11-20T03:35:08.738Z,12.53
2022-11-20T03:37:36.014Z,11.07
2022-11-20T03:40:04.033Z,13.37
2022-11-20T03:42:31.276Z,11.73
2022-11-20T03:44:58.544Z,10.30
2022-11-20T03:47:25.842Z,11.50
2022-11-20T03:49:53.112Z,11.97
2022-11-20T03:52:21.737Z,10.83
2022-11-20T03:54:49.030Z,9.60
2022-11-20T03:57:16.302Z,9.60
2022-11-20T03:59:43.547Z,9.97
2022-11-20T04:02:10.907Z,10.70
2022-11-20T04:04:38.221Z,10.63
2022-11-20T04:07:05.620Z,9.47
2022-11-20T04:09:34.312Z,10.13
2022-11-20T04:12:01.641Z,9.53
2022-11-20T04:14:28.796Z,9.70
2022-11-20T04:16:56.004Z,10.37
2022-11-20T04:19:23.560Z,9.77
2022-11-20T04:21:50.948Z,9.47
2022-11-20T04:24:18.210Z,9.83
2022-11-20T04:26:46.791Z,9.60
2022-11-20T04:29:14.196Z,10.03
2022-11-20T04:31:41.534Z,9.00
2022-11-20T04:34:08.930Z,10.30
2022-11-20T04:36:36.198Z,9.37
2022-11-20T04:39:06.339Z,9.80
2022-11-20T04:41:35.925Z,9.60
2022-11-20T04:44:06.737Z,8.83
2022-11-20T04:46:36.269Z,8.63
2022-11-20T04:49:03.935Z,8.90
2022-11-20T04:51:31.250Z,8.70
2022-11-20T04:53:58.723Z,9.27
2022-11-20T04:56:25.909Z,7.40
2022-11-20T04:58:53.225Z,6.70
2022-11-20T05:01:24.119Z,7.73
2022-11-20T05:03:51.751Z,6.83
2022-11-20T05:06:21.274Z,8.73
2022-11-20T05:08:48.651Z,7.70
2022-11-20T05:11:18.284Z,7.97
2022-11-20T05:13:45.753Z,8.53
2022-11-20T05:16:15.063Z,6.53
2022-11-20T05:18:44.342Z,8.13
2022-11-20T05:21:12.665Z,8.70
2022-11-20T05:23:40.597Z,8.00
2022-11-20T05:26:09.680Z,7.43
2022-11-20T05:28:36.988Z,7.40
2022-11-20T05:31:08.222Z,8.57
2022-11-20T05:33:36.348Z,9.03
2022-11-20T05:36:05.585Z,7.50
2022-11-20T05:38:33.194Z,7.30
2022-11-20T05:41:07.557Z,7.80
2022-11-20T05:43:35.783Z,7.57
2022-11-20T05:46:03.975Z,7.60
2022-11-20T05:48:31.566Z,8.80
2022-11-20T05:50:59.031Z,9.90
2022-11-20T05:53:28.409Z,6.63
2022-11-20T05:55:59.514Z,8.03
2022-11-20T05:58:26.763Z,7.70
2022-11-20T06:00:53.930Z,8.47
2022-11-20T06:03:21.843Z,9.50
2022-11-20T06:05:48.951Z,8.90
2022-11-20T06:08:16.819Z,9.53
2022-11-20T06:10:45.346Z,8.57
2022-11-20T06:13:12.545Z,9.43
2022-11-20T06:15:39.796Z,8.43
2022-11-20T06:18:07.021Z,8.03
2022-11-20T06:20:39.216Z,8.30
2022-11-20T06:23:09.262Z,9.07
2022-11-20T06:25:38.610Z,8.60
2022-11-20T06:28:07.309Z,8.87
2022-11-20T06:30:34.536Z,8.87
2022-11-20T06:33:01.801Z,8.20
2022-11-20T06:35:29.005Z,8.63
2022-11-20T06:37:56.950Z,8.60
2022-11-20T06:40:24.221Z,8.37
2022-11-20T06:42:51.382Z,8.40
2022-11-20T06:45:20.028Z,8.10
2022-11-20T06:47:47.290Z,10.50
2022-11-20T06:50:14.766Z,8.47
2022-11-20T06:52:43.762Z,8.33
2022-11-20T06:55:11.109Z,8.83
2022-11-20T06:57:38.401Z,9.20
2022-11-20T07:00:06.857Z,9.43
2022-11-20T07:02:35.481Z,9.70
2022-11-20T07:05:02.842Z,9.23
2022-11-20T07:07:30.224Z,8.93
2022-11-20T07:09:57.609Z,8.43
2022-11-20T07:12:24.867Z,8.80
2022-11-20T07:14:52.044Z,8.40
2022-11-20T07:17:19.280Z,8.97
2022-11-20T07:19:48.018Z,9.50
2022-11-20T07:22:15.292Z,8.40
2022-11-20T07:24:46.017Z,9.63
2022-11-20T07:27:13.566Z,8.60
2022-11-20T07:29:40.789Z,9.17
2022-11-20T07:32:08.017Z,9.43
2022-11-20T07:34:35.276Z,9.30
2022-11-20T07:37:08.990Z,10.83
2022-11-20T07:39:37.505Z,9.13
2022-11-20T07:42:04.840Z,10.43
2022-11-20T07:44:32.286Z,9.40
2022-11-20T07:46:59.758Z,9.70
2022-11-20T07:49:27.473Z,10.60
2022-11-20T07:51:54.986Z,9.50
2022-11-20T07:54:23.927Z,9.27
2022-11-20T07:56:51.178Z,9.83
2022-11-20T07:59:18.708Z,9.73
2022-11-20T08:01:46.122Z,10.93
2022-11-20T08:04:13.414Z,10.43
2022-11-20T08:06:40.601Z,10.57
2022-11-20T08:09:07.845Z,10.70
2022-11-20T08:11:36.484Z,10.67
2022-11-20T08:14:03.701Z,10.00
2022-11-20T08:16:30.930Z,8.90
2022-11-20T08:18:58.191Z,9.60
2022-11-20T08:21:25.455Z,9.67
2022-11-20T08:23:52.692Z,9.87
2022-11-20T08:26:21.500Z,8.90
2022-11-20T08:28:50.382Z,11.47
2022-11-20T08:31:17.631Z,11.43
2022-11-20T08:33:44.802Z,10.83
2022-11-20T08:36:12.082Z,10.23
2022-11-20T08:38:39.387Z,10.40
2022-11-20T08:41:06.775Z,10.33
2022-11-20T08:43:34.031Z,11.10
2022-11-20T08:46:02.661Z,10.60
2022-11-20T08:48:29.975Z,10.90
2022-11-20T08:50:59.166Z,11.07
2022-11-20T08:53:26.532Z,10.53
2022-11-20T08:55:53.954Z,9.70
2022-11-20T08:58:21.288Z,9.90
2022-11-20T09:00:48.722Z,10.97
2022-11-20T09:03:17.548Z,10.27
2022-11-20T09:05:44.738Z,10.10
2022-11-20T09:08:12.280Z,10.77
2022-11-20T09:10:39.475Z,10.43
2022-11-20T09:13:07.277Z,11.00
2022-11-20T09:15:35.069Z,10.80
2022-11-20T09:18:04.385Z,23.77
2022-11-20T09:20:33.121Z,9.60
2022-11-20T09:23:00.331Z,10.37
2022-11-20T09:25:27.582Z,13.37
2022-11-20T09:27:58.925Z,11.00
2022-11-20T09:30:26.922Z,11.20
2022-11-20T09:32:54.187Z,11.57
2022-11-20T09:35:21.528Z,11.50
2022-11-20T09:37:50.350Z,10.30
2022-11-20T09:40:21.813Z,10.67
2022-11-20T09:42:55.864Z,10.20
2022-11-20T09:45:31.210Z,10.60
2022-11-20T09:48:25.894Z,9.40
2022-11-20T09:50:59.971Z,11.83
2022-11-20T09:53:40.194Z,11.90
2022-11-20T09:56:11.923Z,10.40
2022-11-20T09:58:43.097Z,12.20
2022-11-20T10:01:13.840Z,114.33
2022-11-20T10:03:53.943Z,10.80
2022-11-20T10:06:29.531Z,14.40
2022-11-20T10:09:07.258Z,11.73
2022-11-20T10:11:45.644Z,11.50
2022-11-20T10:14:24.701Z,13.20
2022-11-20T10:16:59.814Z,14.20
2022-11-20T10:19:47.117Z,11.97
2022-11-20T10:22:26.194Z,10.80
2022-11-20T10:24:57.735Z,12.07
2022-11-20T10:27:49.023Z,11.30
2022-11-20T10:30:18.639Z,12.00
2022-11-20T10:32:49.210Z,13.37
2022-11-20T10:35:22.841Z,13.43
2022-11-20T10:37:55.656Z,14.00
2022-11-20T10:40:32.768Z,13.00
2022-11-20T10:43:02.851Z,11.70
2022-11-20T10:45:48.265Z,12.80
2022-11-20T10:48:22.092Z,13.67
2022-11-20T10:51:08.750Z,13.40
2022-11-20T10:53:48.476Z,14.03
2022-11-20T10:56:23.723Z,12.13
2022-11-20T10:59:04.892Z,13.27
2022-11-20T11:01:32.154Z,12.80
2022-11-20T11:03:59.682Z,11.30
2022-11-20T11:06:33.687Z,11.23
2022-11-20T11:09:12.730Z,19.67
2022-11-20T11:11:41.390Z,12.40
2022-11-20T11:14:11.468Z,17.53
2022-11-20T11:16:50.850Z,12.57
2022-11-20T11:19:18.442Z,14.70
2022-11-20T11:21:53.788Z,12.67
2022-11-20T11:24:41.679Z,11.07
2022-11-20T11:27:17.690Z,12.37
2022-11-20T11:29:45.680Z,15.67
2022-11-20T11:32:15.641Z,13.37
2022-11-20T11:34:43.117Z,11.30
2022-11-20T11:37:15.725Z,12.00
2022-11-20T11:39:44.531Z,11.23
2022-11-20T11:42:18.262Z,12.57
2022-11-20T11:44:48.206Z,11.13
2022-11-20T11:47:23.909Z,10.67
2022-11-20T11:50:02.915Z,18.80
2022-11-20T11:52:36.334Z,12.80
2022-11-20T11:55:11.485Z,10.27
2022-11-20T11:57:44.537Z,9.80
2022-11-20T12:00:14.385Z,8.10
2022-11-20T12:02:58.409Z,9.13
2022-11-20T12:05:28.870Z,8.93
2022-11-20T12:08:01.815Z,8.57
2022-11-20T12:10:41.220Z,9.73
2022-11-20T12:13:21.550Z,8.10
2022-11-20T12:15:49.420Z,9.07
2022-11-20T12:18:19.453Z,8.13
2022-11-20T12:20:54.436Z,8.30
2022-11-20T12:23:29.865Z,7.67
2022-11-20T12:26:04.549Z,7.37
2022-11-20T12:28:48.076Z,8.47
2022-11-20T12:31:30.889Z,9.50
2022-11-20T12:34:17.874Z,6.30
2022-11-20T12:36:53.860Z,6.80
2022-11-20T12:39:34.733Z,8.73
2022-11-20T12:42:28.714Z,8.13
2022-11-20T12:45:13.881Z,7.60
2022-11-20T12:48:00.886Z,8.23
2022-11-20T12:50:53.219Z,13.73
2022-11-20T12:53:34.197Z,21.03
2022-11-20T12:56:15.182Z,9.20
2022-11-20T12:58:54.342Z,6.73
2022-11-20T13:01:30.276Z,7.67
2022-11-20T13:04:10.538Z,7.90
2022-11-20T13:06:38.607Z,8.33
2022-11-20T13:09:11.838Z,9.33
2022-11-20T13:11:45.652Z,7.87
2022-11-20T13:14:33.181Z,8.70
2022-11-20T13:17:07.803Z,7.73
2022-11-20T13:19:35.726Z,8.30
2022-11-20T13:22:03.170Z,8.30
2022-11-20T13:24:32.346Z,8.07
2022-11-20T13:27:05.733Z,8.20
2022-11-20T13:29:34.024Z,8.30
2022-11-20T13:32:16.509Z,8.10
2022-11-20T13:34:52.850Z,8.10
2022-11-20T13:37:28.162Z,10.33
2022-11-20T13:40:06.883Z,9.90
2022-11-20T13:42:40.269Z,7.93
2022-11-20T13:45:12.160Z,8.10
2022-11-20T13:47:49.379Z,6.80
2022-11-20T13:50:16.808Z,9.13
2022-11-20T13:52:55.598Z,9.67
2022-11-20T13:55:28.495Z,8.23
2022-11-20T13:58:24.045Z,8.17
2022-11-20T14:00:57.573Z,8.87
2022-11-20T14:03:51.330Z,9.70
2022-11-20T14:06:26.350Z,16.57
2022-11-20T14:08:54.151Z,24.83
2022-11-20T14:11:23.182Z,9.93
2022-11-20T14:13:56.183Z,12.07
2022-11-20T14:16:24.060Z,9.80
2022-11-20T14:18:53.420Z,9.70
2022-11-20T14:21:30.736Z,10.90
2022-11-20T14:24:05.261Z,8.83
2022-11-20T14:26:33.715Z,9.47
2022-11-20T14:29:01.243Z,9.53
2022-11-20T14:31:29.262Z,9.10
2022-11-20T14:33:57.871Z,9.87
2022-11-20T14:36:26.557Z,10.63
2022-11-20T14:38:54.346Z,9.53
2022-11-20T14:41:23.723Z,10.03
2022-11-20T14:43:55.096Z,11.10
2022-11-20T14:46:23.347Z,11.67
2022-11-20T14:48:52.756Z,7.43
2022-11-20T14:51:34.022Z,10.60
2022-11-20T14:54:11.796Z,10.10
2022-11-20T14:56:39.518Z,10.27
2022-11-20T14:59:08.299Z,11.63
2022-11-20T15:01:36.202Z,11.33
2022-11-20T15:04:07.825Z,10.97
2022-11-20T15:06:37.142Z,10.80
2022-11-20T15:09:05.550Z,12.00
2022-11-20T15:11:35.376Z,11.00
2022-11-20T15:14:05.341Z,13.53
2022-11-20T15:16:33.249Z,13.07
2022-11-20T15:19:03.256Z,11.90
2022-11-20T15:21:30.558Z,13.90
2022-11-20T15:23:59.211Z,12.40
2022-11-20T15:26:28.532Z,11.93
2022-11-20T15:28:56.201Z,12.07
2022-11-20T15:31:24.399Z,12.93
2022-11-20T15:33:51.819Z,13.43
2022-11-20T15:36:19.155Z,18.07
2022-11-20T15:38:46.426Z,14.60
2022-11-20T15:41:15.159Z,14.43
2022-11-20T15:43:42.420Z,14.60
2022-11-20T15:46:14.977Z,15.37
2022-11-20T15:48:48.201Z,14.30
2022-11-20T15:51:25.250Z,62.30
2022-11-20T15:53:52.733Z,28.23
2022-11-20T15:56:21.435Z,17.60
2022-11-20T15:58:49.053Z,14.50
2022-11-20T16:01:18.247Z,14.80
2022-11-20T16:03:46.062Z,13.23
2022-11-20T16:06:13.774Z,13.30
2022-11-20T16:08:40.937Z,13.60
2022-11-20T16:11:11.602Z,13.40
2022-11-20T16:13:40.253Z,13.97
2022-11-20T16:16:12.407Z,13.73
2022-11-20T16:18:39.727Z,14.13
2022-11-20T16:21:12.629Z,14.73
2022-11-20T16:23:40.033Z,15.73
2022-11-20T16:26:11.001Z,16.97
2022-11-20T16:28:39.689Z,16.07
2022-11-20T16:31:11.271Z,15.67
2022-11-20T16:33:38.824Z,15.70
2022-11-20T16:36:10.278Z,15.10
2022-11-20T16:38:37.850Z,13.40
2022-11-20T16:41:05.894Z,14.87
2022-11-20T16:43:33.113Z,14.40
2022-11-20T16:46:04.997Z,13.53
2022-11-20T16:48:32.237Z,14.43
2022-11-20T16:50:59.546Z,14.47
2022-11-20T16:53:26.858Z,13.60
2022-11-20T16:55:54.122Z,13.43
2022-11-20T16:58:21.426Z,15.03
2022-11-20T17:00:51.611Z,14.03
2022-11-20T17:03:20.455Z,15.50
2022-11-20T17:05:47.743Z,17.40
2022-11-20T17:08:15.003Z,19.03
2022-11-20T17:10:42.240Z,18.10
2022-11-20T17:13:09.521Z,17.27
2022-11-20T17:15:36.785Z,17.20
2022-11-20T17:18:04.253Z,17.63
2022-11-20T17:20:32.876Z,17.17
2022-11-20T17:23:00.164Z,17.30
2022-11-20T17:25:27.449Z,19.53
2022-11-20T17:27:54.680Z,16.87
2022-11-20T17:30:21.974Z,16.80
2022-11-20T17:32:49.350Z,16.47
2022-11-20T17:35:16.633Z,20.50
2022-11-20T17:37:45.317Z,23.00
2022-11-20T17:40:13.104Z,21.70
2022-11-20T17:42:40.312Z,21.80
2022-11-20T17:45:08.018Z,18.90
2022-11-20T17:47:35.496Z,45.23
2022-11-20T17:50:02.859Z,71.17
2022-11-20T17:52:30.361Z,31.17
2022-11-20T17:54:58.896Z,24.40
2022-11-20T17:57:26.217Z,20.70
2022-11-20T17:59:53.417Z,21.20
2022-11-20T18:02:20.902Z,22.60
2022-11-20T18:04:48.140Z,24.60
2022-11-20T18:07:15.490Z,23.53
2022-11-20T18:09:42.685Z,23.87
2022-11-20T18:12:11.363Z,23.33
2022-11-20T18:14:38.570Z,24.37
2022-11-20T18:17:07.721Z,21.07
2022-11-20T18:19:41.167Z,23.43
2022-11-20T18:22:17.053Z,25.10
2022-11-20T18:24:44.965Z,22.77
2022-11-20T18:27:16.767Z,21.80
2022-11-20T18:29:46.533Z,23.70
2022-11-20T18:32:13.902Z,23.43
2022-11-20T18:34:41.240Z,21.30
2022-11-20T18:37:08.553Z,22.60
2022-11-20T18:39:36.014Z,23.10
2022-11-20T18:42:03.692Z,25.53
2022-11-20T18:44:32.857Z,24.50
2022-11-20T18:47:00.204Z,24.87
2022-11-20T18:49:27.477Z,25.80
2022-11-20T18:51:55.208Z,25.20
2022-11-20T18:54:23.032Z,26.30
2022-11-20T18:56:50.486Z,26.30
2022-11-20T18:59:18.945Z,24.37
2022-11-20T19:01:47.723Z,38.83
2022-11-20T19:04:17.332Z,43.37
2022-11-20T19:06:46.427Z,29.40
2022-11-20T19:09:13.820Z,25.83
2022-11-20T19:11:41.518Z,28.53
2022-11-20T19:14:09.312Z,25.43
2022-11-20T19:16:36.527Z,24.80
2022-11-20T19:19:06.243Z,26.60
2022-11-20T19:21:33.805Z,26.20
2022-11-20T19:24:03.196Z,25.07
2022-11-20T19:26:30.760Z,25.13
2022-11-20T19:28:58.040Z,25.23
2022-11-20T19:31:26.716Z,24.80
2022-11-20T19:33:56.916Z,25.50
2022-11-20T19:36:28.092Z,25.10
2022-11-20T19:38:55.799Z,25.80
2022-11-20T19:41:24.787Z,26.30
2022-11-20T19:43:52.076Z,25.80
2022-11-20T19:46:19.377Z,26.37
2022-11-20T19:48:46.925Z,23.37
2022-11-20T19:51:16.461Z,25.87
2022-11-20T19:53:45.637Z,26.70
2022-11-20T19:56:13.241Z,23.70
2022-11-20T19:58:40.929Z,24.60
2022-11-20T20:01:09.898Z,25.30
2022-11-20T20:03:37.965Z,24.43
2022-11-20T20:06:07.683Z,23.97
2022-11-20T20:08:35.192Z,26.70
2022-11-20T20:11:12.130Z,41.20
2022-11-20T20:13:39.769Z,26.90
2022-11-20T20:16:08.239Z,25.50
2022-11-20T20:18:35.740Z,23.07
2022-11-20T20:21:05.041Z,24.97
2022-11-20T20:23:32.460Z,24.47
2022-11-20T20:25:59.916Z,23.20
2022-11-20T20:28:28.903Z,21.10
2022-11-20T20:30:56.375Z,23.27
2022-11-20T20:33:24.169Z,22.47
2022-11-20T20:35:51.417Z,23.87
2022-11-20T20:38:18.769Z,23.10
2022-11-20T20:40:47.423Z,23.60
2022-11-20T20:43:14.822Z,25.87
2022-11-20T20:45:46.866Z,25.63
2022-11-20T20:48:15.087Z,23.47
2022-11-20T20:50:42.438Z,23.50
2022-11-20T20:53:10.254Z,23.53
2022-11-20T20:55:37.627Z,24.13
2022-11-20T20:58:04.936Z,23.07
2022-11-20T21:00:32.192Z,22.90
2022-11-20T21:03:00.818Z,24.50
2022-11-20T21:05:28.077Z,22.60
2022-11-20T21:07:55.321Z,41.13
2022-11-20T21:10:23.858Z,28.73
2022-11-20T21:12:51.446Z,24.37
2022-11-20T21:15:18.847Z,24.40
2022-11-20T21:17:46.129Z,23.60
2022-11-20T21:20:15.339Z,22.70
2022-11-20T21:22:42.578Z,24.30
2022-11-20T21:25:09.934Z,22.60
2022-11-20T21:27:37.224Z,25.53
2022-11-20T21:30:05.086Z,24.60
2022-11-20T21:32:32.360Z,23.20
2022-11-20T21:34:59.789Z,22.57
2022-11-20T21:37:28.331Z,23.20
2022-11-20T21:39:55.634Z,25.10
2022-11-20T21:42:22.994Z,25.50
2022-11-20T21:44:50.466Z,24.70
2022-11-20T21:47:17.694Z,24.07
2022-11-20T21:49:44.913Z,22.23
2022-11-20T21:52:12.772Z,23.37
2022-11-20T21:54:41.358Z,22.57
2022-11-20T21:57:08.610Z,22.63
2022-11-20T21:59:35.898Z,55.60
2022-11-20T22:02:03.320Z,46.17
2022-11-20T22:04:30.699Z,23.47
2022-11-20T22:06:58.004Z,23.13
2022-11-20T22:09:25.207Z,22.27
2022-11-20T22:11:53.926Z,22.33
2022-11-20T22:14:21.384Z,20.07
2022-11-20T22:16:49.882Z,21.17
2022-11-20T22:19:17.550Z,20.70
2022-11-20T22:21:44.927Z,21.97
2022-11-20T22:24:13.308Z,23.33
2022-11-20T22:26:40.985Z,20.40
2022-11-20T22:29:13.604Z,20.23
2022-11-20T22:31:40.828Z,21.00
2022-11-20T22:34:11.233Z,22.07
2022-11-20T22:36:39.742Z,22.60
2022-11-20T22:39:07.496Z,22.00
2022-11-20T22:41:35.293Z,22.13
2022-11-20T22:44:04.861Z,22.27
2022-11-20T22:46:35.920Z,22.03
2022-11-20T22:49:05.418Z,22.67
2022-11-20T22:51:34.288Z,22.60
2022-11-20T22:54:02.139Z,22.57
2022-11-20T22:56:29.931Z,23.10
2022-11-20T22:58:57.417Z,22.07
2022-11-20T23:01:26.483Z,22.70
2022-11-20T23:03:57.425Z,23.40
2022-11-20T23:06:25.485Z,23.63
2022-11-20T23:08:53.204Z,22.37
2022-11-20T23:11:22.101Z,22.80
2022-11-20T23:13:54.481Z,23.47
2022-11-20T23:16:21.974Z,22.93
2022-11-20T23:18:53.728Z,23.27
2022-11-20T23:21:23.334Z,21.60
2022-11-20T23:23:52.117Z,23.00
2022-11-20T23:26:21.281Z,23.33
2022-11-20T23:28:48.739Z,22.00
2022-11-20T23:31:16.416Z,22.07
2022-11-20T23:33:45.551Z,23.63
2022-11-20T23:36:12.974Z,23.00
2022-11-20T23:38:42.226Z,21.63
2022-11-20T23:41:09.940Z,21.90
2022-11-20T23:43:37.214Z,22.50
2022-11-20T23:46:05.477Z,22.00
2022-11-20T23:48:34.398Z,23.13
2022-11-20T23:51:02.042Z,21.00
2022-11-20T23:53:30.097Z,23.10
2022-11-20T23:56:00.799Z,23.87
2022-11-20T23:58:31.468Z,24.27
